sensor_id;sensor_type;location;lat;lon;timestamp;P1;durP1;ratioP1;P2;durP2;ratioP2
1577;SDS011;57623;53.608;10.004;2023-05-21T00:00:23;3.90;;;2.73;;
1577;SDS011;57623;53.608;10.004;2023-05-21T00:02:51;4.47;;;2.40;;
1577;SDS011;57623;53.608;10.004;2023-05-21T00:05:20;3.47;;;2.50;;
1577;SDS011;57623;53.608;10.004;2023-05-21T00:07:49;4.47;;;2.80;;
1577;SDS011;57623;53.608;10.004;2023-05-21T00:10:18;3.70;;;2.40;;
1577;SDS011;57623;53.608;10.004;2023-05-21T00:12:46;3.17;;;2.60;;
1577;SDS011;57623;53.608;10.004;2023-05-21T00:15:14;4.47;;;2.80;;
1577;SDS011;57623;53.608;10.004;2023-05-21T00:17:44;3.63;;;2.70;;
1577;SDS011;57623;53.608;10.004;2023-05-21T00:20:12;3.57;;;2.53;;
1577;SDS011;57623;53.608;10.004;2023-05-21T00:22:41;3.20;;;2.80;;
1577;SDS011;57623;53.608;10.004;2023-05-21T00:25:09;3.07;;;2.63;;
1577;SDS011;57623;53.608;10.004;2023-05-21T00:27:38;4.97;;;3.50;;
1577;SDS011;57623;53.608;10.004;2023-05-21T00:30:06;4.17;;;2.73;;
1577;SDS011;57623;53.608;10.004;2023-05-21T00:32:35;3.93;;;2.83;;
1577;SDS011;57623;53.608;10.004;2023-05-21T00:35:05;4.77;;;2.90;;
1577;SDS011;57623;53.608;10.004;2023-05-21T00:37:34;2.60;;;2.30;;
1577;SDS011;57623;53.608;10.004;2023-05-21T00:40:02;4.37;;;2.87;;
1577;SDS011;57623;53.608;10.004;2023-05-21T00:42:32;5.70;;;2.57;;
1577;SDS011;57623;53.608;10.004;2023-05-21T00:45:04;5.07;;;2.53;;
1577;SDS011;57623;53.608;10.004;2023-05-21T00:47:33;3.27;;;2.63;;
1577;SDS011;57623;53.608;10.004;2023-05-21T00:50:02;3.00;;;2.47;;
1577;SDS011;57623;53.608;10.004;2023-05-21T00:52:33;5.90;;;3.03;;
1577;SDS011;57623;53.608;10.004;2023-05-21T00:55:07;5.77;;;3.03;;
1577;SDS011;57623;53.608;10.004;2023-05-21T00:57:36;4.73;;;2.43;;
1577;SDS011;57623;53.608;10.004;2023-05-21T01:00:05;3.30;;;2.60;;
1577;SDS011;57623;53.608;10.004;2023-05-21T01:02:35;3.17;;;2.87;;
1577;SDS011;57623;53.608;10.004;2023-05-21T01:05:05;4.13;;;3.07;;
1577;SDS011;57623;53.608;10.004;2023-05-21T01:07:34;4.53;;;3.33;;
1577;SDS011;57623;53.608;10.004;2023-05-21T01:10:05;2.60;;;2.40;;
1577;SDS011;57623;53.608;10.004;2023-05-21T01:12:35;5.13;;;3.13;;
1577;SDS011;57623;53.608;10.004;2023-05-21T01:15:06;2.70;;;2.00;;
1577;SDS011;57623;53.608;10.004;2023-05-21T01:17:36;4.17;;;2.40;;
1577;SDS011;57623;53.608;10.004;2023-05-21T01:20:07;2.80;;;2.43;;
1577;SDS011;57623;53.608;10.004;2023-05-21T01:22:36;3.43;;;2.60;;
1577;SDS011;57623;53.608;10.004;2023-05-21T01:25:11;5.40;;;2.80;;
1577;SDS011;57623;53.608;10.004;2023-05-21T01:27:40;4.60;;;2.90;;
1577;SDS011;57623;53.608;10.004;2023-05-21T01:30:08;3.30;;;2.30;;
1577;SDS011;57623;53.608;10.004;2023-05-21T01:32:39;5.10;;;2.90;;
1577;SDS011;57623;53.608;10.004;2023-05-21T01:35:16;3.23;;;2.47;;
1577;SDS011;57623;53.608;10.004;2023-05-21T01:37:49;6.17;;;3.50;;
1577;SDS011;57623;53.608;10.004;2023-05-21T01:40:24;3.53;;;2.80;;
1577;SDS011;57623;53.608;10.004;2023-05-21T01:42:57;4.20;;;2.80;;
1577;SDS011;57623;53.608;10.004;2023-05-21T01:45:26;3.10;;;2.20;;
1577;SDS011;57623;53.608;10.004;2023-05-21T01:47:56;3.70;;;2.87;;
1577;SDS011;57623;53.608;10.004;2023-05-21T01:50:25;4.60;;;2.90;;
1577;SDS011;57623;53.608;10.004;2023-05-21T01:52:54;2.90;;;2.47;;
1577;SDS011;57623;53.608;10.004;2023-05-21T01:55:25;5.43;;;2.87;;
1577;SDS011;57623;53.608;10.004;2023-05-21T01:57:55;5.40;;;3.37;;
1577;SDS011;57623;53.608;10.004;2023-05-21T02:00:27;3.40;;;3.10;;
1577;SDS011;57623;53.608;10.004;2023-05-21T02:02:57;3.00;;;2.70;;
1577;SDS011;57623;53.608;10.004;2023-05-21T02:05:25;6.73;;;2.70;;
1577;SDS011;57623;53.608;10.004;2023-05-21T02:07:53;4.40;;;3.00;;
1577;SDS011;57623;53.608;10.004;2023-05-21T02:10:22;2.97;;;2.67;;
1577;SDS011;57623;53.608;10.004;2023-05-21T02:12:51;3.70;;;2.80;;
1577;SDS011;57623;53.608;10.004;2023-05-21T02:15:19;3.63;;;2.73;;
1577;SDS011;57623;53.608;10.004;2023-05-21T02:17:47;4.60;;;2.70;;
1577;SDS011;57623;53.608;10.004;2023-05-21T02:20:16;3.20;;;2.90;;
1577;SDS011;57623;53.608;10.004;2023-05-21T02:22:45;4.70;;;3.20;;
1577;SDS011;57623;53.608;10.004;2023-05-21T02:25:15;5.33;;;3.80;;
1577;SDS011;57623;53.608;10.004;2023-05-21T02:27:44;6.13;;;2.80;;
1577;SDS011;57623;53.608;10.004;2023-05-21T02:30:14;5.50;;;2.87;;
1577;SDS011;57623;53.608;10.004;2023-05-21T02:32:42;4.07;;;2.73;;
1577;SDS011;57623;53.608;10.004;2023-05-21T02:35:11;4.80;;;3.67;;
1577;SDS011;57623;53.608;10.004;2023-05-21T02:37:39;6.50;;;4.00;;
1577;SDS011;57623;53.608;10.004;2023-05-21T02:40:09;3.70;;;2.83;;
1577;SDS011;57623;53.608;10.004;2023-05-21T02:42:38;4.33;;;2.93;;
1577;SDS011;57623;53.608;10.004;2023-05-21T02:45:07;3.90;;;3.20;;
1577;SDS011;57623;53.608;10.004;2023-05-21T02:47:37;4.30;;;3.23;;
1577;SDS011;57623;53.608;10.004;2023-05-21T02:50:06;4.57;;;3.37;;
1577;SDS011;57623;53.608;10.004;2023-05-21T02:52:35;4.47;;;3.13;;
1577;SDS011;57623;53.608;10.004;2023-05-21T02:55:03;4.33;;;2.93;;
1577;SDS011;57623;53.608;10.004;2023-05-21T02:57:32;3.67;;;3.17;;
1577;SDS011;57623;53.608;10.004;2023-05-21T03:00:00;4.00;;;2.80;;
1577;SDS011;57623;53.608;10.004;2023-05-21T03:02:28;6.27;;;3.30;;
1577;SDS011;57623;53.608;10.004;2023-05-21T03:04:58;3.47;;;3.17;;
1577;SDS011;57623;53.608;10.004;2023-05-21T03:07:26;4.07;;;2.63;;
1577;SDS011;57623;53.608;10.004;2023-05-21T03:09:54;7.63;;;3.57;;
1577;SDS011;57623;53.608;10.004;2023-05-21T03:12:22;4.63;;;3.40;;
1577;SDS011;57623;53.608;10.004;2023-05-21T03:14:50;4.83;;;3.40;;
1577;SDS011;57623;53.608;10.004;2023-05-21T03:17:17;3.87;;;3.30;;
1577;SDS011;57623;53.608;10.004;2023-05-21T03:19:47;6.57;;;3.53;;
1577;SDS011;57623;53.608;10.004;2023-05-21T03:22:16;4.43;;;3.30;;
1577;SDS011;57623;53.608;10.004;2023-05-21T03:24:45;5.33;;;3.60;;
1577;SDS011;57623;53.608;10.004;2023-05-21T03:27:13;4.00;;;3.43;;
1577;SDS011;57623;53.608;10.004;2023-05-21T03:29:41;4.07;;;3.20;;
1577;SDS011;57623;53.608;10.004;2023-05-21T03:32:11;7.43;;;3.90;;
1577;SDS011;57623;53.608;10.004;2023-05-21T03:34:42;4.53;;;3.33;;
1577;SDS011;57623;53.608;10.004;2023-05-21T03:37:10;5.50;;;4.10;;
1577;SDS011;57623;53.608;10.004;2023-05-21T03:39:39;8.00;;;3.63;;
1577;SDS011;57623;53.608;10.004;2023-05-21T03:42:08;5.83;;;3.73;;
1577;SDS011;57623;53.608;10.004;2023-05-21T03:44:35;4.03;;;3.60;;
1577;SDS011;57623;53.608;10.004;2023-05-21T03:47:04;3.83;;;3.23;;
1577;SDS011;57623;53.608;10.004;2023-05-21T03:49:32;6.43;;;3.83;;
1577;SDS011;57623;53.608;10.004;2023-05-21T03:52:00;5.27;;;3.77;;
1577;SDS011;57623;53.608;10.004;2023-05-21T03:54:28;6.93;;;4.33;;
1577;SDS011;57623;53.608;10.004;2023-05-21T03:56:57;5.57;;;5.03;;
1577;SDS011;57623;53.608;10.004;2023-05-21T03:59:25;5.13;;;4.00;;
1577;SDS011;57623;53.608;10.004;2023-05-21T04:01:53;4.60;;;3.60;;
1577;SDS011;57623;53.608;10.004;2023-05-21T04:04:21;6.27;;;4.70;;
1577;SDS011;57623;53.608;10.004;2023-05-21T04:06:49;5.53;;;4.03;;
1577;SDS011;57623;53.608;10.004;2023-05-21T04:09:19;5.10;;;4.10;;
1577;SDS011;57623;53.608;10.004;2023-05-21T04:11:47;5.40;;;4.20;;
1577;SDS011;57623;53.608;10.004;2023-05-21T04:14:16;6.10;;;4.17;;
1577;SDS011;57623;53.608;10.004;2023-05-21T04:16:44;5.07;;;4.40;;
1577;SDS011;57623;53.608;10.004;2023-05-21T04:19:14;4.80;;;4.00;;
1577;SDS011;57623;53.608;10.004;2023-05-21T04:21:42;5.70;;;4.60;;
1577;SDS011;57623;53.608;10.004;2023-05-21T04:24:10;5.40;;;4.73;;
1577;SDS011;57623;53.608;10.004;2023-05-21T04:26:38;5.80;;;4.53;;
1577;SDS011;57623;53.608;10.004;2023-05-21T04:29:07;6.30;;;4.30;;
1577;SDS011;57623;53.608;10.004;2023-05-21T04:31:38;7.27;;;3.83;;
1577;SDS011;57623;53.608;10.004;2023-05-21T04:34:06;7.93;;;4.90;;
1577;SDS011;57623;53.608;10.004;2023-05-21T04:36:34;6.60;;;4.47;;
1577;SDS011;57623;53.608;10.004;2023-05-21T04:39:02;6.47;;;4.53;;
1577;SDS011;57623;53.608;10.004;2023-05-21T04:41:31;8.60;;;5.20;;
1577;SDS011;57623;53.608;10.004;2023-05-21T04:43:59;7.53;;;4.37;;
1577;SDS011;57623;53.608;10.004;2023-05-21T04:46:27;5.10;;;4.20;;
1577;SDS011;57623;53.608;10.004;2023-05-21T04:48:57;6.17;;;4.13;;
1577;SDS011;57623;53.608;10.004;2023-05-21T04:51:28;4.50;;;3.50;;
1577;SDS011;57623;53.608;10.004;2023-05-21T04:53:56;7.03;;;4.40;;
1577;SDS011;57623;53.608;10.004;2023-05-21T04:56:24;6.53;;;4.10;;
1577;SDS011;57623;53.608;10.004;2023-05-21T04:58:53;6.10;;;4.67;;
1577;SDS011;57623;53.608;10.004;2023-05-21T05:01:21;5.40;;;4.40;;
1577;SDS011;57623;53.608;10.004;2023-05-21T05:03:50;6.17;;;3.93;;
1577;SDS011;57623;53.608;10.004;2023-05-21T05:06:20;8.13;;;5.13;;
1577;SDS011;57623;53.608;10.004;2023-05-21T05:08:50;7.87;;;4.83;;
1577;SDS011;57623;53.608;10.004;2023-05-21T05:11:19;6.70;;;4.87;;
1577;SDS011;57623;53.608;10.004;2023-05-21T05:13:47;5.53;;;4.67;;
1577;SDS011;57623;53.608;10.004;2023-05-21T05:16:15;8.23;;;6.60;;
1577;SDS011;57623;53.608;10.004;2023-05-21T05:18:50;5.87;;;5.30;;
1577;SDS011;57623;53.608;10.004;2023-05-21T05:21:20;7.97;;;5.30;;
1577;SDS011;57623;53.608;10.004;2023-05-21T05:23:49;5.70;;;5.10;;
1577;SDS011;57623;53.608;10.004;2023-05-21T05:26:20;6.83;;;4.97;;
1577;SDS011;57623;53.608;10.004;2023-05-21T05:28:48;5.97;;;4.53;;
1577;SDS011;57623;53.608;10.004;2023-05-21T05:31:15;5.30;;;4.70;;
1577;SDS011;57623;53.608;10.004;2023-05-21T05:33:44;6.20;;;5.60;;
1577;SDS011;57623;53.608;10.004;2023-05-21T05:36:12;4.83;;;4.20;;
1577;SDS011;57623;53.608;10.004;2023-05-21T05:38:41;5.87;;;4.90;;
1577;SDS011;57623;53.608;10.004;2023-05-21T05:41:09;5.20;;;4.70;;
1577;SDS011;57623;53.608;10.004;2023-05-21T05:43:37;6.47;;;5.60;;
1577;SDS011;57623;53.608;10.004;2023-05-21T05:46:05;6.57;;;5.30;;
1577;SDS011;57623;53.608;10.004;2023-05-21T05:48:33;5.97;;;5.37;;
1577;SDS011;57623;53.608;10.004;2023-05-21T05:51:01;7.10;;;5.20;;
1577;SDS011;57623;53.608;10.004;2023-05-21T05:53:29;5.80;;;5.20;;
1577;SDS011;57623;53.608;10.004;2023-05-21T05:55:58;6.10;;;5.50;;
1577;SDS011;57623;53.608;10.004;2023-05-21T05:58:27;6.90;;;6.20;;
1577;SDS011;57623;53.608;10.004;2023-05-21T06:00:56;6.63;;;5.90;;
1577;SDS011;57623;53.608;10.004;2023-05-21T06:03:25;6.73;;;5.37;;
1577;SDS011;57623;53.608;10.004;2023-05-21T06:05:53;5.37;;;4.87;;
1577;SDS011;57623;53.608;10.004;2023-05-21T06:08:22;6.63;;;5.63;;
1577;SDS011;57623;53.608;10.004;2023-05-21T06:10:49;12.63;;;5.50;;
1577;SDS011;57623;53.608;10.004;2023-05-21T06:13:19;6.63;;;5.80;;
1577;SDS011;57623;53.608;10.004;2023-05-21T06:15:47;5.90;;;5.30;;
1577;SDS011;57623;53.608;10.004;2023-05-21T06:18:15;6.80;;;5.60;;
1577;SDS011;57623;53.608;10.004;2023-05-21T06:20:43;6.90;;;6.30;;
1577;SDS011;57623;53.608;10.004;2023-05-21T06:23:11;5.70;;;5.20;;
1577;SDS011;57623;53.608;10.004;2023-05-21T06:25:39;8.50;;;5.40;;
1577;SDS011;57623;53.608;10.004;2023-05-21T06:28:07;6.20;;;5.43;;
1577;SDS011;57623;53.608;10.004;2023-05-21T06:30:36;8.10;;;5.93;;
1577;SDS011;57623;53.608;10.004;2023-05-21T06:33:04;7.83;;;5.40;;
1577;SDS011;57623;53.608;10.004;2023-05-21T06:35:33;9.10;;;6.20;;
1577;SDS011;57623;53.608;10.004;2023-05-21T06:38:03;6.17;;;5.67;;
1577;SDS011;57623;53.608;10.004;2023-05-21T06:40:31;6.47;;;5.87;;
1577;SDS011;57623;53.608;10.004;2023-05-21T06:42:59;7.07;;;6.20;;
1577;SDS011;57623;53.608;10.004;2023-05-21T06:45:27;7.50;;;6.70;;
1577;SDS011;57623;53.608;10.004;2023-05-21T06:47:56;7.57;;;6.77;;
1577;SDS011;57623;53.608;10.004;2023-05-21T06:50:24;8.03;;;7.27;;
1577;SDS011;57623;53.608;10.004;2023-05-21T06:52:52;7.97;;;7.17;;
1577;SDS011;57623;53.608;10.004;2023-05-21T06:55:20;6.87;;;6.17;;
1577;SDS011;57623;53.608;10.004;2023-05-21T06:57:48;8.30;;;7.50;;
1577;SDS011;57623;53.608;10.004;2023-05-21T07:00:16;8.43;;;7.50;;
1577;SDS011;57623;53.608;10.004;2023-05-21T07:02:44;8.00;;;7.20;;
1577;SDS011;57623;53.608;10.004;2023-05-21T07:05:14;9.53;;;8.70;;
1577;SDS011;57623;53.608;10.004;2023-05-21T07:07:42;8.33;;;7.50;;
1577;SDS011;57623;53.608;10.004;2023-05-21T07:10:10;8.20;;;7.50;;
1577;SDS011;57623;53.608;10.004;2023-05-21T07:12:38;8.23;;;7.43;;
1577;SDS011;57623;53.608;10.004;2023-05-21T07:15:07;8.23;;;7.43;;
1577;SDS011;57623;53.608;10.004;2023-05-21T07:17:35;8.77;;;7.93;;
1577;SDS011;57623;53.608;10.004;2023-05-21T07:20:04;8.60;;;7.57;;
1577;SDS011;57623;53.608;10.004;2023-05-21T07:22:35;8.97;;;8.17;;
1577;SDS011;57623;53.608;10.004;2023-05-21T07:25:05;9.27;;;8.47;;
1577;SDS011;57623;53.608;10.004;2023-05-21T07:27:33;9.20;;;8.30;;
1577;SDS011;57623;53.608;10.004;2023-05-21T07:30:01;8.80;;;7.90;;
1577;SDS011;57623;53.608;10.004;2023-05-21T07:32:30;9.13;;;8.33;;
1577;SDS011;57623;53.608;10.004;2023-05-21T07:34:58;9.30;;;8.37;;
1577;SDS011;57623;53.608;10.004;2023-05-21T07:37:28;10.50;;;9.50;;
1577;SDS011;57623;53.608;10.004;2023-05-21T07:39:57;11.53;;;9.20;;
1577;SDS011;57623;53.608;10.004;2023-05-21T07:42:25;9.77;;;8.97;;
1577;SDS011;57623;53.608;10.004;2023-05-21T07:44:53;9.43;;;8.63;;
1577;SDS011;57623;53.608;10.004;2023-05-21T07:47:21;9.97;;;8.97;;
1577;SDS011;57623;53.608;10.004;2023-05-21T07:49:49;11.10;;;10.00;;
1577;SDS011;57623;53.608;10.004;2023-05-21T07:52:17;10.40;;;9.50;;
1577;SDS011;57623;53.608;10.004;2023-05-21T07:54:46;10.50;;;9.60;;
1577;SDS011;57623;53.608;10.004;2023-05-21T07:57:15;10.67;;;9.73;;
1577;SDS011;57623;53.608;10.004;2023-05-21T07:59:43;12.10;;;10.90;;
1577;SDS011;57623;53.608;10.004;2023-05-21T08:02:11;10.77;;;9.77;;
1577;SDS011;57623;53.608;10.004;2023-05-21T08:04:39;12.37;;;11.20;;
1577;SDS011;57623;53.608;10.004;2023-05-21T08:07:07;11.30;;;10.40;;
1577;SDS011;57623;53.608;10.004;2023-05-21T08:09:38;12.37;;;11.27;;
1577;SDS011;57623;53.608;10.004;2023-05-21T08:12:06;11.70;;;10.70;;
1577;SDS011;57623;53.608;10.004;2023-05-21T08:14:35;11.50;;;10.67;;
1577;SDS011;57623;53.608;10.004;2023-05-21T08:17:03;12.70;;;11.70;;
1577;SDS011;57623;53.608;10.004;2023-05-21T08:19:31;12.67;;;11.43;;
1577;SDS011;57623;53.608;10.004;2023-05-21T08:22:00;12.70;;;11.50;;
1577;SDS011;57623;53.608;10.004;2023-05-21T08:24:28;12.70;;;11.63;;
1577;SDS011;57623;53.608;10.004;2023-05-21T08:26:56;11.50;;;10.60;;
1577;SDS011;57623;53.608;10.004;2023-05-21T08:29:24;12.20;;;11.10;;
1577;SDS011;57623;53.608;10.004;2023-05-21T08:31:53;13.03;;;11.80;;
1577;SDS011;57623;53.608;10.004;2023-05-21T08:34:22;11.87;;;10.87;;
1577;SDS011;57623;53.608;10.004;2023-05-21T08:36:50;13.67;;;12.47;;
1577;SDS011;57623;53.608;10.004;2023-05-21T08:39:19;13.43;;;12.23;;
1577;SDS011;57623;53.608;10.004;2023-05-21T08:41:47;13.70;;;12.47;;
1577;SDS011;57623;53.608;10.004;2023-05-21T08:44:21;12.47;;;11.37;;
1577;SDS011;57623;53.608;10.004;2023-05-21T08:46:52;13.23;;;12.03;;
1577;SDS011;57623;53.608;10.004;2023-05-21T08:49:25;11.97;;;10.90;;
1577;SDS011;57623;53.608;10.004;2023-05-21T08:51:59;12.97;;;11.77;;
1577;SDS011;57623;53.608;10.004;2023-05-21T08:54:29;12.17;;;11.17;;
1577;SDS011;57623;53.608;10.004;2023-05-21T08:56:57;13.53;;;12.33;;
1577;SDS011;57623;53.608;10.004;2023-05-21T08:59:26;13.57;;;12.27;;
1577;SDS011;57623;53.608;10.004;2023-05-21T09:01:56;13.17;;;12.07;;
1577;SDS011;57623;53.608;10.004;2023-05-21T09:04:25;12.90;;;11.73;;
1577;SDS011;57623;53.608;10.004;2023-05-21T09:06:53;13.10;;;12.00;;
1577;SDS011;57623;53.608;10.004;2023-05-21T09:09:24;14.00;;;12.83;;
1577;SDS011;57623;53.608;10.004;2023-05-21T09:11:58;14.10;;;12.90;;
1577;SDS011;57623;53.608;10.004;2023-05-21T09:14:26;15.10;;;13.57;;
1577;SDS011;57623;53.608;10.004;2023-05-21T09:16:56;14.63;;;13.23;;
1577;SDS011;57623;53.608;10.004;2023-05-21T09:19:24;12.63;;;11.30;;
1577;SDS011;57623;53.608;10.004;2023-05-21T09:21:56;12.87;;;11.77;;
1577;SDS011;57623;53.608;10.004;2023-05-21T09:24:29;12.03;;;10.93;;
1577;SDS011;57623;53.608;10.004;2023-05-21T09:27:01;13.27;;;12.17;;
1577;SDS011;57623;53.608;10.004;2023-05-21T09:29:32;13.00;;;11.97;;
1577;SDS011;57623;53.608;10.004;2023-05-21T09:32:06;12.63;;;11.53;;
1577;SDS011;57623;53.608;10.004;2023-05-21T09:34:34;12.07;;;11.07;;
1577;SDS011;57623;53.608;10.004;2023-05-21T09:37:02;13.10;;;12.00;;
1577;SDS011;57623;53.608;10.004;2023-05-21T09:39:45;13.53;;;12.43;;
1577;SDS011;57623;53.608;10.004;2023-05-21T09:42:14;11.80;;;10.90;;
1577;SDS011;57623;53.608;10.004;2023-05-21T09:44:42;12.57;;;11.47;;
1577;SDS011;57623;53.608;10.004;2023-05-21T09:47:11;13.40;;;12.20;;
1577;SDS011;57623;53.608;10.004;2023-05-21T09:49:45;13.80;;;12.60;;
1577;SDS011;57623;53.608;10.004;2023-05-21T09:52:13;14.50;;;13.20;;
1577;SDS011;57623;53.608;10.004;2023-05-21T09:54:50;13.30;;;12.10;;
1577;SDS011;57623;53.608;10.004;2023-05-21T09:57:22;12.97;;;11.87;;
1577;SDS011;57623;53.608;10.004;2023-05-21T09:59:51;12.87;;;11.87;;
1577;SDS011;57623;53.608;10.004;2023-05-21T10:02:21;13.00;;;12.00;;
1577;SDS011;57623;53.608;10.004;2023-05-21T10:04:51;12.27;;;11.27;;
1577;SDS011;57623;53.608;10.004;2023-05-21T10:07:20;13.53;;;12.30;;
1577;SDS011;57623;53.608;10.004;2023-05-21T10:09:52;13.10;;;12.00;;
1577;SDS011;57623;53.608;10.004;2023-05-21T10:12:22;14.03;;;12.70;;
1577;SDS011;57623;53.608;10.004;2023-05-21T10:14:53;13.87;;;12.67;;
1577;SDS011;57623;53.608;10.004;2023-05-21T10:17:28;12.80;;;11.70;;
1577;SDS011;57623;53.608;10.004;2023-05-21T10:19:57;13.20;;;12.20;;
1577;SDS011;57623;53.608;10.004;2023-05-21T10:22:26;15.00;;;13.67;;
1577;SDS011;57623;53.608;10.004;2023-05-21T10:24:55;12.43;;;11.33;;
1577;SDS011;57623;53.608;10.004;2023-05-21T10:27:24;13.50;;;12.37;;
1577;SDS011;57623;53.608;10.004;2023-05-21T10:29:58;12.93;;;11.90;;
1577;SDS011;57623;53.608;10.004;2023-05-21T10:32:27;13.90;;;12.60;;
1577;SDS011;57623;53.608;10.004;2023-05-21T10:34:57;12.10;;;11.20;;
1577;SDS011;57623;53.608;10.004;2023-05-21T10:37:29;13.17;;;11.97;;
1577;SDS011;57623;53.608;10.004;2023-05-21T10:39:57;12.53;;;11.53;;
1577;SDS011;57623;53.608;10.004;2023-05-21T10:42:39;13.37;;;12.07;;
1577;SDS011;57623;53.608;10.004;2023-05-21T10:45:30;12.37;;;11.37;;
1577;SDS011;57623;53.608;10.004;2023-05-21T10:48:17;12.67;;;11.57;;
1577;SDS011;57623;53.608;10.004;2023-05-21T10:51:01;11.57;;;10.47;;
1577;SDS011;57623;53.608;10.004;2023-05-21T10:53:43;12.57;;;11.47;;
1577;SDS011;57623;53.608;10.004;2023-05-21T10:56:27;11.57;;;10.67;;
1577;SDS011;57623;53.608;10.004;2023-05-21T10:59:07;10.70;;;9.90;;
1577;SDS011;57623;53.608;10.004;2023-05-21T11:01:47;10.83;;;9.93;;
1577;SDS011;57623;53.608;10.004;2023-05-21T11:04:22;11.00;;;10.00;;
1577;SDS011;57623;53.608;10.004;2023-05-21T11:06:52;10.70;;;9.80;;
1577;SDS011;57623;53.608;10.004;2023-05-21T11:09:21;12.20;;;11.00;;
1577;SDS011;57623;53.608;10.004;2023-05-21T11:11:49;11.77;;;10.23;;
1577;SDS011;57623;53.608;10.004;2023-05-21T11:14:29;10.90;;;10.07;;
1577;SDS011;57623;53.608;10.004;2023-05-21T11:17:00;10.60;;;9.77;;
1577;SDS011;57623;53.608;10.004;2023-05-21T11:19:35;11.50;;;10.50;;
1577;SDS011;57623;53.608;10.004;2023-05-21T11:22:08;9.90;;;9.20;;
1577;SDS011;57623;53.608;10.004;2023-05-21T11:24:47;11.43;;;10.33;;
1577;SDS011;57623;53.608;10.004;2023-05-21T11:27:29;12.97;;;11.77;;
1577;SDS011;57623;53.608;10.004;2023-05-21T11:29:59;12.20;;;11.07;;
1577;SDS011;57623;53.608;10.004;2023-05-21T11:32:36;10.37;;;9.53;;
1577;SDS011;57623;53.608;10.004;2023-05-21T11:35:07;10.27;;;9.27;;
1577;SDS011;57623;53.608;10.004;2023-05-21T11:37:35;9.90;;;9.07;;
1577;SDS011;57623;53.608;10.004;2023-05-21T11:40:17;10.13;;;9.33;;
1577;SDS011;57623;53.608;10.004;2023-05-21T11:42:52;9.33;;;8.60;;
1577;SDS011;57623;53.608;10.004;2023-05-21T11:45:21;10.10;;;9.30;;
1577;SDS011;57623;53.608;10.004;2023-05-21T11:47:51;11.50;;;10.60;;
1577;SDS011;57623;53.608;10.004;2023-05-21T11:50:20;11.20;;;10.30;;
1577;SDS011;57623;53.608;10.004;2023-05-21T11:52:49;10.77;;;9.97;;
1577;SDS011;57623;53.608;10.004;2023-05-21T11:55:20;10.90;;;9.97;;
1577;SDS011;57623;53.608;10.004;2023-05-21T11:57:51;11.00;;;10.20;;
1577;SDS011;57623;53.608;10.004;2023-05-21T12:00:20;11.47;;;10.57;;
1577;SDS011;57623;53.608;10.004;2023-05-21T12:02:49;11.57;;;10.67;;
1577;SDS011;57623;53.608;10.004;2023-05-21T12:05:20;10.80;;;9.90;;
1577;SDS011;57623;53.608;10.004;2023-05-21T12:07:48;12.57;;;11.57;;
1577;SDS011;57623;53.608;10.004;2023-05-21T12:10:19;12.10;;;11.07;;
1577;SDS011;57623;53.608;10.004;2023-05-21T12:12:48;11.17;;;10.17;;
1577;SDS011;57623;53.608;10.004;2023-05-21T12:15:22;14.83;;;10.30;;
1577;SDS011;57623;53.608;10.004;2023-05-21T12:17:51;12.70;;;11.70;;
1577;SDS011;57623;53.608;10.004;2023-05-21T12:20:22;13.97;;;12.97;;
1577;SDS011;57623;53.608;10.004;2023-05-21T12:22:52;14.37;;;13.17;;
1577;SDS011;57623;53.608;10.004;2023-05-21T12:25:20;18.77;;;17.10;;
1577;SDS011;57623;53.608;10.004;2023-05-21T12:27:48;20.80;;;18.77;;
1577;SDS011;57623;53.608;10.004;2023-05-21T12:30:18;15.43;;;13.83;;
1577;SDS011;57623;53.608;10.004;2023-05-21T12:32:47;13.40;;;12.40;;
1577;SDS011;57623;53.608;10.004;2023-05-21T12:35:25;13.93;;;12.53;;
1577;SDS011;57623;53.608;10.004;2023-05-21T12:37:53;17.37;;;15.60;;
1577;SDS011;57623;53.608;10.004;2023-05-21T12:40:21;13.10;;;12.10;;
1577;SDS011;57623;53.608;10.004;2023-05-21T12:43:02;14.40;;;13.00;;
1577;SDS011;57623;53.608;10.004;2023-05-21T12:45:31;13.03;;;12.03;;
1577;SDS011;57623;53.608;10.004;2023-05-21T12:48:00;13.00;;;12.00;;
1577;SDS011;57623;53.608;10.004;2023-05-21T12:50:30;12.60;;;11.50;;
1577;SDS011;57623;53.608;10.004;2023-05-21T12:53:01;11.67;;;10.67;;
1577;SDS011;57623;53.608;10.004;2023-05-21T12:55:29;11.50;;;10.60;;
1577;SDS011;57623;53.608;10.004;2023-05-21T12:58:01;11.90;;;11.00;;
1577;SDS011;57623;53.608;10.004;2023-05-21T13:00:33;12.13;;;11.13;;
1577;SDS011;57623;53.608;10.004;2023-05-21T13:03:02;12.43;;;11.53;;
1577;SDS011;57623;53.608;10.004;2023-05-21T13:05:33;11.50;;;10.60;;
1577;SDS011;57623;53.608;10.004;2023-05-21T13:08:01;12.00;;;11.10;;
1577;SDS011;57623;53.608;10.004;2023-05-21T13:10:30;12.67;;;11.53;;
1577;SDS011;57623;53.608;10.004;2023-05-21T13:12:57;10.90;;;10.10;;
1577;SDS011;57623;53.608;10.004;2023-05-21T13:15:26;12.20;;;11.30;;
1577;SDS011;57623;53.608;10.004;2023-05-21T13:17:56;12.97;;;11.70;;
1577;SDS011;57623;53.608;10.004;2023-05-21T13:20:26;11.30;;;10.50;;
1577;SDS011;57623;53.608;10.004;2023-05-21T13:22:55;12.23;;;11.07;;
1577;SDS011;57623;53.608;10.004;2023-05-21T13:25:24;11.53;;;10.53;;
1577;SDS011;57623;53.608;10.004;2023-05-21T13:27:54;12.27;;;11.27;;
1577;SDS011;57623;53.608;10.004;2023-05-21T13:30:23;12.30;;;11.17;;
1577;SDS011;57623;53.608;10.004;2023-05-21T13:32:51;11.10;;;10.20;;
1577;SDS011;57623;53.608;10.004;2023-05-21T13:35:19;12.63;;;11.73;;
1577;SDS011;57623;53.608;10.004;2023-05-21T13:37:47;12.40;;;11.40;;
1577;SDS011;57623;53.608;10.004;2023-05-21T13:40:17;12.80;;;11.80;;
1577;SDS011;57623;53.608;10.004;2023-05-21T13:42:45;12.40;;;11.30;;
1577;SDS011;57623;53.608;10.004;2023-05-21T13:45:16;11.80;;;11.00;;
1577;SDS011;57623;53.608;10.004;2023-05-21T13:47:45;11.70;;;10.90;;
1577;SDS011;57623;53.608;10.004;2023-05-21T13:50:14;11.00;;;10.00;;
1577;SDS011;57623;53.608;10.004;2023-05-21T13:52:42;12.17;;;11.10;;
1577;SDS011;57623;53.608;10.004;2023-05-21T13:55:11;11.97;;;11.00;;
1577;SDS011;57623;53.608;10.004;2023-05-21T13:57:42;11.23;;;10.43;;
1577;SDS011;57623;53.608;10.004;2023-05-21T14:00:11;11.97;;;11.07;;
1577;SDS011;57623;53.608;10.004;2023-05-21T14:02:41;13.03;;;11.80;;
1577;SDS011;57623;53.608;10.004;2023-05-21T14:05:10;11.83;;;10.93;;
1577;SDS011;57623;53.608;10.004;2023-05-21T14:07:38;11.90;;;10.87;;
1577;SDS011;57623;53.608;10.004;2023-05-21T14:10:07;11.33;;;10.43;;
1577;SDS011;57623;53.608;10.004;2023-05-21T14:12:35;10.87;;;10.07;;
1577;SDS011;57623;53.608;10.004;2023-05-21T14:15:06;12.03;;;11.07;;
1577;SDS011;57623;53.608;10.004;2023-05-21T14:17:34;11.03;;;10.13;;
1577;SDS011;57623;53.608;10.004;2023-05-21T14:20:02;10.67;;;10.00;;
1577;SDS011;57623;53.608;10.004;2023-05-21T14:22:31;11.00;;;10.00;;
1577;SDS011;57623;53.608;10.004;2023-05-21T14:24:59;10.97;;;10.07;;
1577;SDS011;57623;53.608;10.004;2023-05-21T14:27:28;10.27;;;9.57;;
1577;SDS011;57623;53.608;10.004;2023-05-21T14:29:56;10.90;;;10.00;;
1577;SDS011;57623;53.608;10.004;2023-05-21T14:32:25;10.70;;;9.90;;
1577;SDS011;57623;53.608;10.004;2023-05-21T14:34:53;10.40;;;9.60;;
1577;SDS011;57623;53.608;10.004;2023-05-21T14:37:22;10.07;;;9.37;;
1577;SDS011;57623;53.608;10.004;2023-05-21T14:39:50;14.40;;;9.77;;
1577;SDS011;57623;53.608;10.004;2023-05-21T14:42:18;10.70;;;9.80;;
1577;SDS011;57623;53.608;10.004;2023-05-21T14:44:46;10.23;;;9.23;;
1577;SDS011;57623;53.608;10.004;2023-05-21T14:47:14;10.17;;;9.30;;
1577;SDS011;57623;53.608;10.004;2023-05-21T14:49:43;10.20;;;9.30;;